Detall de PIREP

Printer-friendly versionPDF version

[2011/01/16 10:55:00]
Flight IATA:CT3300
Pilot Number:042
Company ICAO:CAT
Aircraft Type:B763/F
PAX:250
Departing Airport: LEZG
Destination Airport: DAAG
Alternate Airport:DAAE
Online: VATSIM
Route:PONEN UW800 CASPE UN860 VLC UM134 IZA UN856 SADAF/N0450F250
Flight Level:F350
No Slew and time accel
No pause
Crash detect
Detect pilot in Cockpit between each 30 and 45 minutes
10:55 Zero fuel Weight: 244975 Lbs, Fuel Weight: 160948 Lbs
10:55 VATSIM:LEZG 161030Z 12004KT 090V150 0200 R30R/0325N R12R/0275N R30L/0275N FG VV002 02/02 Q1029
10:55 VATSIM:DAAG 161030Z 22003KT 180V280 8000 NSC 14/12 Q1029
10:55 VOICE CATALONIAN
11:01 Parking Brakes off
11:09 Take-off
11:09 Take off Weight: 402727 Lbs
11:09 Wind: 149 @ 004 Knots Heading: 120
11:09 POS N41 39 37 W001 01 11
11:09 Gear Up: 178 Knots
11:09 Flaps:3 at 178 Knots
11:09 Flaps:2 at 178 Knots
11:09 Flaps:1 at 148 Knots
11:11 Flaps:0 at 245 Knots
11:24 Wind:194@010 Knots Heading: 197 Ground Speed: 438 Knots Altitude 33546 ft
11:25 TOC
11:25 Fuel Weight: 149407 Lb
11:39 Wind:228@006 Knots Heading: 110 Ground Speed: 450 Knots Altitude 35462 ft
11:54 Wind:205@036 Knots Heading: 153 Ground Speed: 428 Knots Altitude 35456 ft
11:54 TOD
11:54 Fuel Weight: 143833 Lb
12:09 Wind:195@009 Knots Heading: 142 Ground Speed: 307 Knots Altitude 12362 ft
12:13 Flaps:1 at 242 Knots
12:15 Flaps:2 at 225 Knots
12:17 Flaps:3 at 191 Knots
12:19 Flaps:4 at 177 Knots
12:19 Gear Down: 175 Knots
12:19 Flaps:5 at 175 Knots
12:22 TouchDown:Rate -201 ft/min Speed: 144 Knots
12:22 VATSIM:DAAG 161130Z 30003KT 250V330 8000 NSC 16/13 Q1028
12:22 Land
12:22 Wind:292@003 Knots
12:22 Heading: 234
12:22 Flight Duration: 01:13
12:22 Landing Weight: 385565 Lbs
12:22 POS N36 42 16 E003 14 15
12:26 Parking brakes on
12:26 Block to Block Duration: 01:25
12:26 Final Fuel: 139995 Lbls
12:26 Spent Fuel: 20952 Lbls
12:26 Flight Length: 342 NM
12:26 TOD Land Length: 102 NM

Exportar CSV

Powered by Drupal - Modified by Danger4k